Time;durP1;ratioP1;P1;durP2;ratioP2;P2;SDS_P1;SDS_P2;PMS_P1;PMS_P2;Temp;Humidity;BMP_temperature;BMP_pressure;BME280_temperature;BME280_humidity;BME280_pressure;Samples;Min_cycle;Max_cycle;Signal;HPM_P1;HPM_P2
2022/05/24 00:01:04;;;;;;;;;;;15.10;99.90;;;;;;5016044;28;38267;-48
2022/05/24 00:03:31;;;;;;;;;;;15.00;99.90;;;;;;5018112;28;36451;-48
2022/05/24 00:05:58;;;;;;;;;;;15.00;99.90;;;;;;5018535;28;37857;-49
2022/05/24 00:08:25;;;;;;;;;;;15.00;99.90;;;;;;5016798;28;37102;-48
2022/05/24 00:10:53;;;;;;;;;;;15.00;99.90;;;;;;5016551;28;39085;-47
2022/05/24 00:13:21;;;;;;;;;;;14.90;99.90;;;;;;5016768;28;36294;-51
2022/05/24 00:15:48;;;;;;;;;;;15.00;99.90;;;;;;5015620;28;37867;-50
2022/05/24 00:18:16;;;;;;;;;;;14.90;99.90;;;;;;5015271;28;40214;-49
2022/05/24 00:20:45;;;;;;;;;;;14.90;99.90;;;;;;5014684;28;37577;-51
2022/05/24 00:23:12;;;;;;;;;;;14.90;99.90;;;;;;5014864;28;37063;-49
2022/05/24 00:25:43;;;;;;;;;;;14.90;99.90;;;;;;5016922;28;39816;-51
2022/05/24 00:28:11;;;;;;;;;;;14.80;99.90;;;;;;5016246;28;38854;-47
2022/05/24 00:30:40;;;;;;;;;;;14.80;99.90;;;;;;5015372;28;37239;-48
2022/05/24 00:33:07;;;;;;;;;;;14.80;99.90;;;;;;5017559;28;35979;-50
2022/05/24 00:35:34;;;;;;;;;;;14.80;99.90;;;;;;5017230;28;37764;-46
2022/05/24 00:38:01;;;;;;;;;;;14.80;99.90;;;;;;5017950;28;37059;-49
2022/05/24 00:40:34;;;;;;;;;;;14.80;99.90;;;;;;5016503;28;38182;-48
2022/05/24 00:43:04;;;;;;;;;;;14.90;99.90;;;;;;5015214;28;35089;-48
2022/05/24 00:45:33;;;;;;;;;;;14.80;99.90;;;;;;5016333;28;38384;-48
2022/05/24 00:48:03;;;;;;;;;;;14.80;99.90;;;;;;5016656;28;38489;-50
2022/05/24 00:50:33;;;;;;;;;;;14.80;99.90;;;;;;5015808;28;37547;-49
2022/05/24 00:53:02;;;;;;;;;;;14.80;99.90;;;;;;5016690;28;38611;-46
2022/05/24 00:55:30;;;;;;;;;;;14.70;99.90;;;;;;5017302;28;38276;-45
2022/05/24 00:58:07;;;;;;;;;;;14.70;99.90;;;;;;5014942;28;38818;-49
2022/05/24 01:00:34;;;;;;;;;;;14.60;99.90;;;;;;5016400;28;37251;-47
2022/05/24 01:03:03;;;;;;;;;;;14.60;99.90;;;;;;5014903;28;35221;-50
2022/05/24 01:05:31;;;;;;;;;;;14.50;99.90;;;;;;5015618;28;36709;-47
2022/05/24 01:07:58;;;;;;;;;;;14.50;99.90;;;;;;5016148;28;38615;-47
2022/05/24 01:10:27;;;;;;;;;;;14.50;99.90;;;;;;5014278;28;38723;-48
2022/05/24 01:12:57;;;;;;;;;;;14.40;99.90;;;;;;5016397;28;35879;-48
2022/05/24 01:15:24;;;;;;;;;;;14.40;99.90;;;;;;5015505;28;38384;-47
2022/05/24 01:17:52;;;;;;;;;;;14.40;99.90;;;;;;5016966;28;38702;-49
2022/05/24 01:20:21;;;;;;;;;;;14.30;99.90;;;;;;5015897;28;37401;-48
2022/05/24 01:23:08;;;;;;;;;;;14.30;99.90;;;;;;5014884;28;36274;-47
2022/05/24 01:25:38;;;;;;;;;;;14.20;99.90;;;;;;5016431;28;37821;-48
2022/05/24 01:28:09;;;;;;;;;;;14.20;99.90;;;;;;5015631;28;38495;-47
2022/05/24 01:30:36;;;;;;;;;;;14.20;99.90;;;;;;5015809;28;38150;-51
2022/05/24 01:38:33;;;;;;;;;;;14.10;99.90;;;;;;5016702;28;41222;-50
2022/05/24 01:41:00;;;;;;;;;;;14.10;99.90;;;;;;5016071;28;36807;-51
2022/05/24 01:43:29;;;;;;;;;;;14.10;99.90;;;;;;5015524;28;35935;-47
2022/05/24 01:45:58;;;;;;;;;;;14.10;99.90;;;;;;5014692;28;36274;-47
2022/05/24 01:48:28;;;;;;;;;;;14.00;99.90;;;;;;5016445;28;36957;-48
2022/05/24 01:50:56;;;;;;;;;;;14.00;99.90;;;;;;5015776;28;37641;-48
2022/05/24 01:53:26;;;;;;;;;;;14.00;99.90;;;;;;5014426;28;36281;-50
2022/05/24 01:55:55;;;;;;;;;;;13.90;99.90;;;;;;5015733;28;38066;-47
2022/05/24 01:58:23;;;;;;;;;;;13.90;99.90;;;;;;5014707;28;36946;-46
2022/05/24 02:00:54;;;;;;;;;;;14.00;99.90;;;;;;5015656;28;40593;-47
2022/05/24 02:03:21;;;;;;;;;;;14.00;99.90;;;;;;5015768;28;37106;-50
2022/05/24 02:05:48;;;;;;;;;;;14.00;99.90;;;;;;5015705;28;38117;-47
2022/05/24 02:08:15;;;;;;;;;;;14.00;99.90;;;;;;5013132;28;39457;-47
2022/05/24 02:10:44;;;;;;;;;;;14.00;99.90;;;;;;5015776;28;37833;-47
2022/05/24 02:13:11;;;;;;;;;;;14.00;99.90;;;;;;5015766;28;36943;-49
2022/05/24 02:15:40;;;;;;;;;;;14.00;99.90;;;;;;5015247;28;36343;-49
2022/05/24 02:18:11;;;;;;;;;;;14.00;99.90;;;;;;5015773;28;38546;-48
2022/05/24 02:20:39;;;;;;;;;;;14.00;99.90;;;;;;5014903;28;38064;-47
2022/05/24 02:23:06;;;;;;;;;;;14.10;99.90;;;;;;5013664;28;36424;-46
2022/05/24 02:25:35;;;;;;;;;;;14.10;99.90;;;;;;5016042;28;38691;-50
2022/05/24 02:28:03;;;;;;;;;;;14.10;99.90;;;;;;5014120;28;38943;-49
2022/05/24 02:30:31;;;;;;;;;;;14.10;99.90;;;;;;5015890;28;37528;-47
2022/05/24 02:32:58;;;;;;;;;;;14.20;99.90;;;;;;5014567;28;35228;-50
2022/05/24 02:35:26;;;;;;;;;;;14.20;99.90;;;;;;5015472;28;38615;-47
2022/05/24 02:37:54;;;;;;;;;;;14.20;99.90;;;;;;5014638;28;38499;-47
2022/05/24 02:43:06;;;;;;;;;;;14.20;99.90;;;;;;5018465;28;37664;-48
2022/05/24 02:45:33;;;;;;;;;;;14.20;99.90;;;;;;5017857;28;38452;-49
2022/05/24 02:48:00;;;;;;;;;;;14.30;99.90;;;;;;5018101;28;38453;-46
2022/05/24 02:50:28;;;;;;;;;;;14.30;99.90;;;;;;5018808;28;37478;-51
2022/05/24 02:52:55;;;;;;;;;;;14.30;99.90;;;;;;5018723;28;37699;-47
2022/05/24 02:55:22;;;;;;;;;;;14.30;99.90;;;;;;5018398;28;37855;-49
2022/05/24 02:57:49;;;;;;;;;;;14.30;99.90;;;;;;5016590;28;38180;-50
2022/05/24 03:00:19;;;;;;;;;;;14.30;99.90;;;;;;5018544;28;37930;-49
2022/05/24 03:02:46;;;;;;;;;;;14.40;99.90;;;;;;5018818;28;36189;-50
2022/05/24 03:05:14;;;;;;;;;;;14.40;99.90;;;;;;5017753;28;37636;-47
2022/05/24 03:10:27;;;;;;;;;;;14.40;99.90;;;;;;5018834;28;39915;-48
2022/05/24 03:15:40;;;;;;;;;;;14.40;99.90;;;;;;5018323;28;39812;-47
2022/05/24 03:18:08;;;;;;;;;;;14.40;99.90;;;;;;5018424;28;37157;-51
2022/05/24 03:20:35;;;;;;;;;;;14.40;99.90;;;;;;5019432;28;38763;-47
2022/05/24 03:23:04;;;;;;;;;;;14.40;99.90;;;;;;5016921;28;37662;-47
2022/05/24 03:25:32;;;;;;;;;;;14.40;99.90;;;;;;5017746;28;39700;-47
2022/05/24 03:27:59;;;;;;;;;;;14.50;99.90;;;;;;5017315;28;38022;-47
2022/05/24 03:30:26;;;;;;;;;;;14.50;99.90;;;;;;5018035;28;36342;-49
2022/05/24 03:32:53;;;;;;;;;;;14.50;99.90;;;;;;5017989;28;36248;-49
2022/05/24 03:35:21;;;;;;;;;;;14.50;99.90;;;;;;5018284;28;38226;-49
2022/05/24 03:37:48;;;;;;;;;;;14.50;99.90;;;;;;5018681;28;39901;-47
2022/05/24 03:40:17;;;;;;;;;;;14.50;99.90;;;;;;5017925;28;37819;-48
2022/05/24 03:42:46;;;;;;;;;;;14.60;99.90;;;;;;5016631;28;36287;-47
2022/05/24 03:45:13;;;;;;;;;;;14.50;99.90;;;;;;5015605;28;37794;-51
2022/05/24 03:47:40;;;;;;;;;;;14.60;99.90;;;;;;5014960;28;37274;-46
2022/05/24 03:50:08;;;;;;;;;;;14.60;99.90;;;;;;5015390;28;38514;-51
2022/05/24 03:52:35;;;;;;;;;;;14.60;99.90;;;;;;5017678;28;37852;-50
2022/05/24 03:55:03;;;;;;;;;;;14.60;99.90;;;;;;5017953;28;39259;-48
2022/05/24 04:00:18;;;;;;;;;;;14.60;99.90;;;;;;5018036;28;39194;-50
2022/05/24 04:02:45;;;;;;;;;;;14.60;99.90;;;;;;5016770;28;36483;-50
2022/05/24 04:05:13;;;;;;;;;;;14.70;99.90;;;;;;5018446;28;38433;-47
2022/05/24 04:07:40;;;;;;;;;;;14.70;99.90;;;;;;5016867;28;39506;-49
2022/05/24 04:10:08;;;;;;;;;;;14.70;99.90;;;;;;5017028;28;36457;-48
2022/05/24 04:12:36;;;;;;;;;;;14.70;99.90;;;;;;5016756;28;36465;-47
2022/05/24 04:15:04;;;;;;;;;;;14.70;99.90;;;;;;5016059;28;38512;-47
2022/05/24 04:17:31;;;;;;;;;;;14.70;99.90;;;;;;5015962;28;38324;-47
2022/05/24 04:19:58;;;;;;;;;;;14.70;99.90;;;;;;5015873;28;36837;-47
2022/05/24 04:22:25;;;;;;;;;;;14.70;99.90;;;;;;5016239;28;37402;-49
2022/05/24 04:24:52;;;;;;;;;;;14.80;99.90;;;;;;5015655;28;37307;-48
2022/05/24 04:27:19;;;;;;;;;;;14.80;99.90;;;;;;5016017;28;39371;-49
2022/05/24 04:29:51;;;;;;;;;;;14.80;99.90;;;;;;5017425;28;38292;-46
2022/05/24 04:32:18;;;;;;;;;;;14.80;99.90;;;;;;5016385;28;35126;-49
2022/05/24 04:34:45;;;;;;;;;;;14.80;99.90;;;;;;5014977;28;38833;-50
2022/05/24 04:37:12;;;;;;;;;;;14.80;99.90;;;;;;5017749;28;37021;-48
2022/05/24 04:39:40;;;;;;;;;;;14.80;99.90;;;;;;5017438;28;37639;-50
2022/05/24 04:44:57;;;;;;;;;;;14.80;99.90;;;;;;5009460;28;38904;-47
2022/05/24 04:47:25;;;;;;;;;;;14.80;99.90;;;;;;5016071;28;37077;-48
2022/05/24 04:49:55;;;;;;;;;;;14.80;99.90;;;;;;5017458;28;40607;-48
2022/05/24 04:52:23;;;;;;;;;;;14.80;99.90;;;;;;5017286;28;36202;-49
2022/05/24 04:54:51;;;;;;;;;;;14.80;99.90;;;;;;5017408;28;38514;-47
2022/05/24 04:57:18;;;;;;;;;;;14.80;99.90;;;;;;5014568;28;41377;-46
2022/05/24 04:59:46;;;;;;;;;;;14.90;99.90;;;;;;5014888;28;37428;-50
2022/05/24 05:02:14;;;;;;;;;;;14.80;99.90;;;;;;5012340;28;36321;-51
2022/05/24 05:04:42;;;;;;;;;;;14.80;99.90;;;;;;5016732;28;37569;-58
2022/05/24 05:07:09;;;;;;;;;;;14.80;99.90;;;;;;5016417;28;38666;-59
2022/05/24 05:09:38;;;;;;;;;;;14.80;99.90;;;;;;5015299;28;38447;-59
2022/05/24 05:12:06;;;;;;;;;;;14.80;99.90;;;;;;5015252;28;37742;-59
2022/05/24 05:14:33;;;;;;;;;;;14.80;99.90;;;;;;5016378;28;38664;-59
2022/05/24 05:17:00;;;;;;;;;;;14.80;99.90;;;;;;5017330;28;38084;-58
2022/05/24 05:19:28;;;;;;;;;;;14.90;99.90;;;;;;5016918;28;38258;-59
2022/05/24 05:21:56;;;;;;;;;;;14.90;99.90;;;;;;5016328;28;35989;-59
2022/05/24 05:24:23;;;;;;;;;;;14.90;99.90;;;;;;5016231;28;36398;-59
2022/05/24 05:26:50;;;;;;;;;;;14.90;99.90;;;;;;5013434;28;38676;-59
2022/05/24 05:31:16;;;;;;;;;;;14.90;99.90;;;;;;5014407;28;38633;-59
2022/05/24 05:32:04;;;;;;;;;;;14.90;99.90;;;;;;5016181;28;38126;-59
2022/05/24 05:34:33;;;;;;;;;;;15.00;99.90;;;;;;5015163;28;37314;-59
2022/05/24 05:37:00;;;;;;;;;;;15.00;99.90;;;;;;5013926;28;38256;-59
2022/05/24 05:39:27;;;;;;;;;;;15.00;99.90;;;;;;5014985;28;38472;-59
2022/05/24 05:41:54;;;;;;;;;;;15.00;99.90;;;;;;5016743;28;37750;-59
2022/05/24 05:44:21;;;;;;;;;;;15.00;99.90;;;;;;5015311;28;39078;-59
2022/05/24 05:46:49;;;;;;;;;;;14.90;99.90;;;;;;5014309;28;38705;-58
2022/05/24 05:49:16;;;;;;;;;;;14.90;99.90;;;;;;5015304;28;38297;-59
2022/05/24 05:51:44;;;;;;;;;;;14.90;99.90;;;;;;5015380;28;37672;-59
2022/05/24 05:54:11;;;;;;;;;;;14.90;99.90;;;;;;5015422;28;38206;-58
2022/05/24 05:56:40;;;;;;;;;;;14.90;99.90;;;;;;5017110;28;37766;-58
2022/05/24 05:59:07;;;;;;;;;;;14.90;99.90;;;;;;5015831;28;37553;-58
2022/05/24 06:01:34;;;;;;;;;;;15.00;99.90;;;;;;5014460;28;36838;-58
2022/05/24 06:04:01;;;;;;;;;;;14.90;99.90;;;;;;5016364;28;36490;-58
2022/05/24 06:06:30;;;;;;;;;;;14.80;99.90;;;;;;5015684;28;39990;-58
2022/05/24 06:08:58;;;;;;;;;;;14.80;99.90;;;;;;5014009;28;39559;-58
2022/05/24 06:11:25;;;;;;;;;;;14.80;99.90;;;;;;5016157;28;37214;-58
2022/05/24 06:13:52;;;;;;;;;;;14.70;99.90;;;;;;5019339;28;39719;-58
2022/05/24 06:16:19;;;;;;;;;;;14.70;99.90;;;;;;5018838;28;38204;-56
2022/05/24 06:18:47;;;;;;;;;;;14.70;99.90;;;;;;5019126;28;37163;-53
2022/05/24 06:21:14;;;;;;;;;;;14.70;99.90;;;;;;5017821;28;36759;-54
2022/05/24 06:23:42;;;;;;;;;;;14.70;99.90;;;;;;5018696;28;37845;-55
2022/05/24 06:26:10;;;;;;;;;;;14.80;99.90;;;;;;5018803;28;37142;-55
2022/05/24 06:28:38;;;;;;;;;;;14.70;99.90;;;;;;5017587;28;39370;-54
2022/05/24 06:31:05;;;;;;;;;;;14.80;99.90;;;;;;5018611;28;36341;-55
2022/05/24 06:33:32;;;;;;;;;;;14.70;99.90;;;;;;5018949;28;38413;-55
2022/05/24 06:35:59;;;;;;;;;;;14.70;99.90;;;;;;5018222;28;38743;-55
2022/05/24 06:38:26;;;;;;;;;;;14.70;99.90;;;;;;5019218;28;39652;-55
2022/05/24 06:40:53;;;;;;;;;;;14.70;99.90;;;;;;5019299;28;36771;-55
2022/05/24 06:43:21;;;;;;;;;;;14.70;99.90;;;;;;5018812;28;37811;-55
2022/05/24 06:45:48;;;;;;;;;;;14.70;99.90;;;;;;5018388;28;38513;-55
2022/05/24 06:48:15;;;;;;;;;;;14.70;99.90;;;;;;5019593;28;39073;-55
2022/05/24 06:50:43;;;;;;;;;;;14.70;99.90;;;;;;5019236;28;36454;-56
2022/05/24 06:53:10;;;;;;;;;;;14.70;99.90;;;;;;5018786;28;39449;-54
2022/05/24 06:55:38;;;;;;;;;;;14.80;99.90;;;;;;5017718;28;39029;-54
2022/05/24 06:58:05;;;;;;;;;;;14.80;99.90;;;;;;5018717;28;38546;-55
2022/05/24 07:03:18;;;;;;;;;;;14.90;99.90;;;;;;5018646;28;38808;-56
2022/05/24 07:05:45;;;;;;;;;;;15.00;99.90;;;;;;5017901;28;38282;-55
2022/05/24 07:08:13;;;;;;;;;;;15.00;99.90;;;;;;5019443;28;37408;-54
2022/05/24 07:10:40;;;;;;;;;;;15.00;99.90;;;;;;5018753;28;36546;-54
2022/05/24 07:13:08;;;;;;;;;;;15.00;99.90;;;;;;5018772;28;36526;-47
2022/05/24 07:15:37;;;;;;;;;;;15.00;99.90;;;;;;5016847;28;37097;-47
2022/05/24 07:18:04;;;;;;;;;;;15.10;99.90;;;;;;5017545;28;37341;-48
2022/05/24 07:20:33;;;;;;;;;;;15.20;99.90;;;;;;5019566;28;38052;-46
2022/05/24 07:23:07;;;;;;;;;;;15.30;99.90;;;;;;5018584;28;37771;-46
2022/05/24 07:25:34;;;;;;;;;;;15.30;99.90;;;;;;5018161;28;38558;-47
2022/05/24 07:28:01;;;;;;;;;;;15.30;99.90;;;;;;5017496;28;36482;-46
2022/05/24 07:30:28;;;;;;;;;;;15.30;99.90;;;;;;5017918;28;37458;-46
2022/05/24 07:32:56;;;;;;;;;;;15.30;99.90;;;;;;5018401;28;38311;-46
2022/05/24 07:35:23;;;;;;;;;;;15.30;99.90;;;;;;5017594;28;37185;-47
2022/05/24 07:37:50;;;;;;;;;;;15.30;99.90;;;;;;5017359;28;37861;-47
2022/05/24 07:45:50;;;;;;;;;;;15.20;99.90;;;;;;5013959;28;39665;-47
2022/05/24 07:48:19;;;;;;;;;;;15.20;99.90;;;;;;5013684;28;38942;-47
2022/05/24 07:50:47;;;;;;;;;;;15.20;99.90;;;;;;5014499;28;37244;-49
2022/05/24 07:53:14;;;;;;;;;;;15.10;99.90;;;;;;5012758;28;38473;-49
2022/05/24 07:55:41;;;;;;;;;;;15.00;99.90;;;;;;5013139;28;37061;-46
2022/05/24 07:58:09;;;;;;;;;;;15.10;99.90;;;;;;5013905;28;38113;-55
2022/05/24 08:00:36;;;;;;;;;;;15.00;99.90;;;;;;5014367;28;35031;-54
2022/05/24 08:03:04;;;;;;;;;;;15.00;99.90;;;;;;5014389;28;36279;-53
2022/05/24 08:05:33;;;;;;;;;;;15.00;99.90;;;;;;5015291;28;38129;-54
2022/05/24 08:08:00;;;;;;;;;;;15.00;99.90;;;;;;5014934;28;37315;-54
2022/05/24 08:10:28;;;;;;;;;;;14.80;99.90;;;;;;5013243;28;36374;-53
2022/05/24 08:12:55;;;;;;;;;;;14.90;99.90;;;;;;5013755;28;36537;-53
2022/05/24 08:15:23;;;;;;;;;;;14.90;99.90;;;;;;5013635;28;38724;-53
2022/05/24 08:17:50;;;;;;;;;;;14.90;99.90;;;;;;5013101;28;37413;-54
2022/05/24 08:20:17;;;;;;;;;;;14.80;99.90;;;;;;5013469;28;35486;-49
2022/05/24 08:22:46;;;;;;;;;;;14.80;99.90;;;;;;5012685;28;37663;-53
2022/05/24 08:25:13;;;;;;;;;;;14.70;99.90;;;;;;5013655;28;38575;-46
2022/05/24 08:27:40;;;;;;;;;;;14.70;99.90;;;;;;5013389;28;36250;-47
2022/05/24 08:30:08;;;;;;;;;;;14.70;99.90;;;;;;5013302;28;37018;-47
2022/05/24 08:32:35;;;;;;;;;;;14.70;99.90;;;;;;5013014;28;37688;-49
2022/05/24 08:35:04;;;;;;;;;;;14.70;99.90;;;;;;5012076;28;36907;-46
2022/05/24 08:37:31;;;;;;;;;;;14.70;99.90;;;;;;5012084;28;37309;-47
2022/05/24 08:39:59;;;;;;;;;;;14.80;99.90;;;;;;5012575;28;40293;-48
2022/05/24 08:42:28;;;;;;;;;;;14.80;99.90;;;;;;5012392;28;38040;-47
2022/05/24 08:50:30;;;;;;;;;;;14.80;99.90;;;;;;5011519;28;37738;-46
2022/05/24 08:52:59;;;;;;;;;;;14.80;99.90;;;;;;5012907;28;37553;-46
2022/05/24 08:55:28;;;;;;;;;;;14.90;99.90;;;;;;5012020;28;36989;-47
2022/05/24 08:57:57;;;;;;;;;;;14.90;99.90;;;;;;5010097;28;37739;-47
2022/05/24 09:00:26;;;;;;;;;;;15.00;99.90;;;;;;5012201;28;37025;-48
2022/05/24 09:02:54;;;;;;;;;;;14.90;99.90;;;;;;5011398;28;38307;-50
2022/05/24 09:05:23;;;;;;;;;;;14.90;99.90;;;;;;5010628;28;38379;-49
2022/05/24 09:07:58;;;;;;;;;;;14.80;99.90;;;;;;5012048;28;38738;-46
2022/05/24 09:10:33;;;;;;;;;;;14.80;99.90;;;;;;5012903;28;36772;-47
2022/05/24 09:13:05;;;;;;;;;;;14.90;99.90;;;;;;5013055;28;39121;-48
2022/05/24 09:15:37;;;;;;;;;;;14.90;99.90;;;;;;5012231;28;37792;-49
2022/05/24 09:18:11;;;;;;;;;;;14.90;99.90;;;;;;5010864;28;36535;-48
2022/05/24 09:20:39;;;;;;;;;;;14.90;99.90;;;;;;5011324;28;35107;-49
2022/05/24 09:23:09;;;;;;;;;;;14.90;99.90;;;;;;5009791;28;37208;-48
2022/05/24 09:25:38;;;;;;;;;;;14.80;99.90;;;;;;5011799;28;38152;-49
2022/05/24 09:28:05;;;;;;;;;;;14.70;99.90;;;;;;5011409;28;38286;-49
2022/05/24 09:30:38;;;;;;;;;;;14.60;99.90;;;;;;5012317;28;36611;-49
2022/05/24 09:33:24;;;;;;;;;;;14.60;99.90;;;;;;5013095;28;37500;-47
2022/05/24 09:35:54;;;;;;;;;;;14.60;99.90;;;;;;5011085;28;38182;-49
2022/05/24 09:38:22;;;;;;;;;;;14.60;99.90;;;;;;5012331;28;37780;-48
2022/05/24 09:40:53;;;;;;;;;;;14.60;99.90;;;;;;5011587;28;36268;-50
2022/05/24 09:43:26;;;;;;;;;;;14.60;99.90;;;;;;5011807;28;36482;-47
2022/05/24 09:45:56;;;;;;;;;;;14.70;99.90;;;;;;5012243;28;38029;-48
2022/05/24 09:48:25;;;;;;;;;;;14.80;99.90;;;;;;5012015;28;40425;-46
2022/05/24 09:50:52;;;;;;;;;;;14.80;99.90;;;;;;5011990;28;36846;-47
2022/05/24 09:53:20;;;;;;;;;;;14.80;99.90;;;;;;5011720;28;39844;-45
2022/05/24 09:55:48;;;;;;;;;;;14.80;99.90;;;;;;5012176;28;38030;-46
2022/05/24 09:58:18;;;;;;;;;;;14.80;99.90;;;;;;5012585;28;37912;-47
2022/05/24 10:00:49;;;;;;;;;;;14.80;99.90;;;;;;5013318;28;37132;-45
2022/05/24 10:03:20;;;;;;;;;;;14.90;99.90;;;;;;5013630;28;36564;-49
2022/05/24 10:05:54;;;;;;;;;;;14.90;99.90;;;;;;5014022;28;37159;-46
2022/05/24 10:08:21;;;;;;;;;;;15.00;99.90;;;;;;5013269;28;37289;-47
2022/05/24 10:10:56;;;;;;;;;;;15.00;99.90;;;;;;5012275;28;36941;-46
2022/05/24 10:13:34;;;;;;;;;;;15.10;99.90;;;;;;5011739;28;38570;-46
2022/05/24 10:16:05;;;;;;;;;;;15.20;99.90;;;;;;5012292;28;40813;-47
2022/05/24 10:18:37;;;;;;;;;;;15.30;99.90;;;;;;5012142;28;38284;-49
2022/05/24 10:21:09;;;;;;;;;;;15.30;99.90;;;;;;5013710;28;36327;-50
2022/05/24 10:23:42;;;;;;;;;;;15.20;99.90;;;;;;5013701;28;37957;-46
2022/05/24 10:26:17;;;;;;;;;;;15.20;99.90;;;;;;5013513;28;37053;-46
2022/05/24 10:28:49;;;;;;;;;;;15.20;99.90;;;;;;5012189;28;36271;-48
2022/05/24 10:31:23;;;;;;;;;;;15.20;99.90;;;;;;5012280;28;36393;-50
2022/05/24 10:39:40;;;;;;;;;;;15.10;99.90;;;;;;5012138;28;38754;-47
2022/05/24 10:42:21;;;;;;;;;;;15.00;99.90;;;;;;5008667;28;35052;-50
2022/05/24 10:44:51;;;;;;;;;;;14.90;99.90;;;;;;5012445;28;38811;-46
2022/05/24 10:47:24;;;;;;;;;;;14.80;99.90;;;;;;5011167;28;39823;-47
2022/05/24 10:49:53;;;;;;;;;;;14.80;99.90;;;;;;5012886;28;37458;-50
2022/05/24 10:52:24;;;;;;;;;;;14.90;99.90;;;;;;5011338;28;37366;-46
2022/05/24 10:54:53;;;;;;;;;;;15.00;99.90;;;;;;5012894;28;38613;-47
2022/05/24 10:57:22;;;;;;;;;;;15.30;99.90;;;;;;5013482;28;38378;-48
2022/05/24 10:59:55;;;;;;;;;;;15.40;99.90;;;;;;5013942;28;37415;-46
2022/05/24 11:02:29;;;;;;;;;;;15.60;99.90;;;;;;5014945;28;37038;-49
2022/05/24 11:05:00;;;;;;;;;;;15.90;99.90;;;;;;5016239;28;35457;-48
2022/05/24 11:07:28;;;;;;;;;;;16.10;99.90;;;;;;5016183;28;40942;-46
2022/05/24 11:09:59;;;;;;;;;;;16.10;99.90;;;;;;5015917;28;37679;-49
2022/05/24 11:12:29;;;;;;;;;;;16.00;99.90;;;;;;5015111;28;37781;-48
2022/05/24 11:15:01;;;;;;;;;;;16.00;99.90;;;;;;5015208;28;37517;-46
2022/05/24 11:17:29;;;;;;;;;;;15.90;99.90;;;;;;5016241;28;36515;-46
2022/05/24 11:19:56;;;;;;;;;;;15.90;99.90;;;;;;5015948;28;37185;-47
2022/05/24 11:22:27;;;;;;;;;;;15.80;99.90;;;;;;5015636;28;36234;-49
2022/05/24 11:24:56;;;;;;;;;;;15.70;99.90;;;;;;5015432;28;37561;-52
2022/05/24 11:27:26;;;;;;;;;;;15.60;99.90;;;;;;5015201;28;39329;-52
2022/05/24 11:29:55;;;;;;;;;;;15.50;99.90;;;;;;5015967;28;36279;-52
2022/05/24 11:32:32;;;;;;;;;;;15.30;99.90;;;;;;5015300;28;36150;-51
2022/05/24 11:35:02;;;;;;;;;;;15.30;99.90;;;;;;5015155;28;36742;-52
2022/05/24 11:37:29;;;;;;;;;;;15.30;99.90;;;;;;5014404;28;38407;-52
2022/05/24 11:39:57;;;;;;;;;;;15.40;99.90;;;;;;5014793;28;36500;-53
2022/05/24 11:42:25;;;;;;;;;;;15.60;99.90;;;;;;5014853;28;36378;-51
2022/05/24 11:44:53;;;;;;;;;;;15.80;99.90;;;;;;5014422;28;38048;-51
2022/05/24 11:47:39;;;;;;;;;;;15.80;99.90;;;;;;5015028;28;38244;-52
2022/05/24 11:50:09;;;;;;;;;;;15.90;99.90;;;;;;5014656;28;38186;-52
2022/05/24 11:52:57;;;;;;;;;;;16.00;99.90;;;;;;5015255;28;36466;-52
2022/05/24 11:55:44;;;;;;;;;;;16.00;99.90;;;;;;5014843;28;36676;-52
2022/05/24 11:58:40;;;;;;;;;;;16.00;99.90;;;;;;5014268;28;38265;-52
2022/05/24 12:01:09;;;;;;;;;;;15.90;99.90;;;;;;5012222;28;39773;-53
2022/05/24 12:09:18;;;;;;;;;;;15.70;99.90;;;;;;4948716;28;40383;-53
2022/05/24 12:11:45;;;;;;;;;;;15.60;99.90;;;;;;5012847;28;37890;-52
2022/05/24 12:14:17;;;;;;;;;;;15.60;99.90;;;;;;5013352;28;37670;-52
2022/05/24 12:17:07;;;;;;;;;;;15.60;99.90;;;;;;5012763;28;37608;-52
2022/05/24 12:19:49;;;;;;;;;;;15.50;99.90;;;;;;5011968;28;41115;-46
2022/05/24 12:22:18;;;;;;;;;;;15.50;99.90;;;;;;5010052;28;37304;-49
2022/05/24 12:24:55;;;;;;;;;;;15.50;99.90;;;;;;5011452;28;36475;-47
2022/05/24 12:27:47;;;;;;;;;;;15.60;99.90;;;;;;5009579;28;37565;-45
2022/05/24 12:30:21;;;;;;;;;;;15.60;99.90;;;;;;5008319;28;41744;-45
2022/05/24 12:32:49;;;;;;;;;;;15.60;99.90;;;;;;5008752;28;38022;-50
2022/05/24 12:35:17;;;;;;;;;;;15.50;99.90;;;;;;5009750;28;37108;-49
2022/05/24 12:37:50;;;;;;;;;;;15.40;99.90;;;;;;5009811;28;37316;-47
2022/05/24 12:40:18;;;;;;;;;;;15.30;99.90;;;;;;5009728;28;40970;-45
2022/05/24 12:42:46;;;;;;;;;;;15.40;99.90;;;;;;5008756;28;40482;-50
2022/05/24 12:45:14;;;;;;;;;;;15.40;99.90;;;;;;5010991;28;37510;-47
2022/05/24 12:47:42;;;;;;;;;;;15.60;99.90;;;;;;5009438;28;39279;-46
2022/05/24 12:50:22;;;;;;;;;;;15.70;99.90;;;;;;5009746;28;38127;-50
2022/05/24 12:52:57;;;;;;;;;;;15.80;99.90;;;;;;5009763;28;36288;-47
2022/05/24 12:55:54;;;;;;;;;;;15.70;99.90;;;;;;5011472;28;35196;-47
2022/05/24 12:58:23;;;;;;;;;;;15.70;99.90;;;;;;5009264;28;37241;-46
2022/05/24 13:00:50;;;;;;;;;;;15.60;99.90;;;;;;5010268;28;38549;-45
2022/05/24 13:03:22;;;;;;;;;;;15.60;99.90;;;;;;5008198;28;37395;-47
2022/05/24 13:05:53;;;;;;;;;;;15.60;99.90;;;;;;5008571;28;37411;-48
2022/05/24 13:08:21;;;;;;;;;;;15.60;99.90;;;;;;5006798;28;37940;-47
2022/05/24 13:10:49;;;;;;;;;;;15.60;99.90;;;;;;5010558;28;37107;-47
2022/05/24 13:13:18;;;;;;;;;;;15.70;99.90;;;;;;5009686;28;37506;-46
2022/05/24 13:15:46;;;;;;;;;;;15.70;99.90;;;;;;5010367;28;36713;-46
2022/05/24 13:18:14;;;;;;;;;;;15.80;99.90;;;;;;5010791;28;37498;-46
2022/05/24 13:20:43;;;;;;;;;;;15.80;99.90;;;;;;5010891;28;38081;-52
2022/05/24 13:23:19;;;;;;;;;;;15.90;99.90;;;;;;5009565;28;38385;-49
2022/05/24 13:25:49;;;;;;;;;;;15.90;99.90;;;;;;5011346;28;37291;-51
2022/05/24 13:28:31;;;;;;;;;;;15.90;99.90;;;;;;5011354;28;38246;-53
2022/05/24 13:33:45;;;;;;;;;;;16.00;99.90;;;;;;5010671;28;38392;-54
2022/05/24 13:36:18;;;;;;;;;;;15.90;99.90;;;;;;5010850;28;35132;-54
2022/05/24 13:38:46;;;;;;;;;;;15.90;99.90;;;;;;5009888;28;37806;-54
2022/05/24 13:41:26;;;;;;;;;;;15.80;99.90;;;;;;5009851;28;38634;-55
2022/05/24 13:44:05;;;;;;;;;;;15.80;99.90;;;;;;5010663;28;39228;-54
2022/05/24 13:46:46;;;;;;;;;;;15.80;99.90;;;;;;5011177;28;36720;-53
2022/05/24 13:49:25;;;;;;;;;;;15.70;99.40;;;;;;5011231;28;39003;-54
2022/05/24 13:51:52;;;;;;;;;;;15.60;99.90;;;;;;5010691;28;37149;-55
2022/05/24 13:54:32;;;;;;;;;;;15.60;99.90;;;;;;5010159;28;38813;-49
2022/05/24 13:57:00;;;;;;;;;;;15.60;99.60;;;;;;5010606;28;36684;-53
2022/05/24 13:59:28;;;;;;;;;;;15.60;99.90;;;;;;5009617;28;38612;-55
2022/05/24 14:01:56;;;;;;;;;;;15.70;99.90;;;;;;5005858;28;36996;-54
2022/05/24 14:04:25;;;;;;;;;;;15.70;99.60;;;;;;5009554;28;37346;-54
2022/05/24 14:06:53;;;;;;;;;;;15.70;99.60;;;;;;5009912;28;36929;-54
2022/05/24 14:09:21;;;;;;;;;;;15.60;99.90;;;;;;5009850;28;38488;-54
2022/05/24 14:11:50;;;;;;;;;;;15.70;99.90;;;;;;5008380;28;37954;-54
2022/05/24 14:14:19;;;;;;;;;;;15.80;99.90;;;;;;5008795;28;38274;-54
2022/05/24 14:16:46;;;;;;;;;;;15.90;99.90;;;;;;5006786;28;36407;-54
2022/05/24 14:19:16;;;;;;;;;;;15.90;99.90;;;;;;5008055;28;39006;-55
2022/05/24 14:21:43;;;;;;;;;;;15.90;99.90;;;;;;5008992;28;38383;-54
2022/05/24 14:24:13;;;;;;;;;;;15.90;99.90;;;;;;5009410;28;37947;-54
2022/05/24 14:26:40;;;;;;;;;;;15.90;99.90;;;;;;5009823;28;37482;-54
2022/05/24 14:29:08;;;;;;;;;;;16.00;99.90;;;;;;5007392;28;42280;-55
2022/05/24 14:31:37;;;;;;;;;;;16.00;99.90;;;;;;5007557;28;37888;-54
2022/05/24 14:34:05;;;;;;;;;;;16.00;99.90;;;;;;5007119;28;38338;-54
2022/05/24 14:36:33;;;;;;;;;;;16.10;99.90;;;;;;5010628;28;36918;-55
2022/05/24 14:39:00;;;;;;;;;;;16.10;99.90;;;;;;5012002;28;38297;-54
2022/05/24 14:41:27;;;;;;;;;;;16.20;99.40;;;;;;5011748;28;37962;-48
2022/05/24 14:43:57;;;;;;;;;;;16.20;99.90;;;;;;5011121;28;37392;-48
2022/05/24 14:46:24;;;;;;;;;;;16.20;99.10;;;;;;5011116;28;37333;-46
2022/05/24 14:48:53;;;;;;;;;;;16.20;99.30;;;;;;5011024;28;37581;-46
2022/05/24 14:51:24;;;;;;;;;;;16.10;99.90;;;;;;5012492;28;37642;-47
2022/05/24 14:53:51;;;;;;;;;;;16.10;99.90;;;;;;5010499;28;38238;-49
2022/05/24 14:56:18;;;;;;;;;;;16.10;99.60;;;;;;5013846;28;36302;-49
2022/05/24 14:58:46;;;;;;;;;;;16.10;99.30;;;;;;5012372;28;40465;-49
2022/05/24 15:01:13;;;;;;;;;;;16.10;99.20;;;;;;5011198;28;38280;-46
2022/05/24 15:03:40;;;;;;;;;;;16.10;99.40;;;;;;5011830;28;38923;-47
2022/05/24 15:06:08;;;;;;;;;;;16.00;99.00;;;;;;5010803;28;37207;-46
2022/05/24 15:16:50;;;;;;;;;;;15.90;99.10;;;;;;5011964;28;37827;-49
2022/05/24 15:19:17;;;;;;;;;;;15.90;99.50;;;;;;5012409;28;39609;-48
2022/05/24 15:21:47;;;;;;;;;;;15.90;99.90;;;;;;5010231;28;38412;-47
2022/05/24 15:24:17;;;;;;;;;;;15.90;99.90;;;;;;5011288;28;36375;-48